Cedar Mills, Minnesota
Current Conditions -  °F | °C
As of 11:13 AM on Wednesday 26 Nov 2014 (Local Time) from KLJF Reporting Station
Broken Clouds Broken Clouds  
Wind Chill: 15°   Ceiling: 1600
Heat Index: 25°   Visibility: 10mi
Dew Point: 19°   Wind: 10mph
Humidity: 80%   Direction: 360°N
Pressure: 30.2"   Gusts: NA
Location:  44.9062°N, 94.4284°W
Report Text: KLJF 261713Z AUTO 36009KT 10SM BKN016 M04/M07 A3020 RMK AO2
Loading
Personal Weather Stations






























Interactive Weather Map New forecast layout! Learn more

10-Day Weather Forecast

Advertisements
Track Severe Weather on mobile